Time;durP1;ratioP1;P1;durP2;ratioP2;P2;SDS_P1;SDS_P2;PMS_P1;PMS_P2;Temp;Humidity;BMP_temperature;BMP_pressure;BME280_temperature;BME280_humidity;BME280_pressure;Samples;Min_cycle;Max_cycle;Signal;HPM_P1;HPM_P2
2023/06/18 00:01:48;;;;;;;11.70;7.50;;;;;;;-142.75;100.00;75897.13;5026312;28;20037;-63
2023/06/18 00:04:13;;;;;;;14.18;8.52;;;;;;;-142.75;100.00;75899.09;5027070;28;20037;-64
2023/06/18 00:06:39;;;;;;;16.05;8.80;;;;;;;-142.75;100.00;75906.97;5027292;28;20032;-63
2023/06/18 00:09:04;;;;;;;13.48;8.10;;;;;;;-142.75;100.00;75912.88;5027448;28;20087;-64
2023/06/18 00:11:29;;;;;;;9.15;7.43;;;;;;;-142.75;100.00;75920.75;5026724;28;20040;-63
2023/06/18 00:13:55;;;;;;;13.55;7.38;;;;;;;-142.75;100.00;75930.59;5027228;28;20426;-63
2023/06/18 00:16:20;;;;;;;10.20;7.35;;;;;;;-142.75;100.00;75930.59;5026711;28;20037;-62
2023/06/18 00:18:46;;;;;;;10.95;7.50;;;;;;;-142.75;100.00;75936.50;5026386;28;20075;-63
2023/06/18 00:21:12;;;;;;;10.20;6.75;;;;;;;-142.75;100.00;75940.44;5027198;28;20036;-62
2023/06/18 00:23:37;;;;;;;11.85;6.90;;;;;;;-142.75;100.00;75936.50;5026784;28;20021;-63
2023/06/18 00:26:03;;;;;;;12.80;7.57;;;;;;;-142.75;100.00;75942.41;5027474;28;20520;-63
2023/06/18 00:28:31;;;;;;;11.82;6.90;;;;;;;-142.75;100.00;75946.34;5027625;28;20083;-63
2023/06/18 00:30:56;;;;;;;9.70;6.68;;;;;;;-142.75;100.00;75948.31;5027035;28;20421;-63
2023/06/18 00:33:22;;;;;;;9.73;6.15;;;;;;;-142.75;100.00;75954.22;5027151;28;20133;-63
2023/06/18 00:35:48;;;;;;;9.70;6.05;;;;;;;-142.75;100.00;75948.31;5026950;28;20033;-63
2023/06/18 00:38:16;;;;;;;16.80;6.70;;;;;;;-142.75;100.00;75948.31;5026938;28;20022;-62
2023/06/18 00:40:42;;;;;;;9.40;5.75;;;;;;;-142.75;100.00;75960.13;5026892;28;20104;-63
2023/06/18 00:43:08;;;;;;;11.52;6.65;;;;;;;-142.75;100.00;75954.22;5026483;28;20112;-62
2023/06/18 00:45:34;;;;;;;9.88;5.30;;;;;;;-142.75;100.00;75956.19;5027394;28;20067;-62
2023/06/18 00:48:00;;;;;;;8.60;5.28;;;;;;;-142.75;100.00;75967.97;5026631;28;20032;-63
2023/06/18 00:50:27;;;;;;;10.55;6.57;;;;;;;-142.75;100.00;75969.94;5027431;28;20021;-63
2023/06/18 00:52:59;;;;;;;15.02;6.00;;;;;;;-142.75;100.00;75969.94;5026222;28;20551;-63
2023/06/18 00:55:26;;;;;;;9.70;5.97;;;;;;;-142.75;100.00;75971.91;5027056;28;20048;-63
2023/06/18 00:57:59;;;;;;;9.63;5.20;;;;;;;-142.75;100.00;75962.09;5026965;28;20025;-63
2023/06/18 01:00:28;;;;;;;9.70;5.40;;;;;;;-142.75;100.00;75964.03;5026430;28;20033;-63
2023/06/18 01:02:55;;;;;;;8.55;5.75;;;;;;;-142.75;100.00;75958.16;5025276;28;20036;-63
2023/06/18 01:05:22;;;;;;;10.32;5.03;;;;;;;-142.75;100.00;75958.16;5026793;28;20036;-63
2023/06/18 01:07:49;;;;;;;7.72;4.90;;;;;;;-142.75;100.00;75960.13;5026432;28;20061;-62
2023/06/18 01:10:15;;;;;;;8.57;4.90;;;;;;;-142.75;100.00;75950.28;5026830;28;20028;-63
2023/06/18 01:12:48;;;;;;;9.23;5.47;;;;;;;-142.75;100.00;75942.41;5026324;28;20026;-63
2023/06/18 01:15:14;;;;;;;9.35;6.00;;;;;;;-142.75;100.00;75948.31;5026173;28;20618;-63
2023/06/18 01:17:46;;;;;;;11.90;6.38;;;;;;;-142.75;100.00;75948.31;5040898;28;20025;-63
2023/06/18 01:20:11;;;;;;;15.07;6.28;;;;;;;-142.75;100.00;75950.28;5026064;28;20025;-63
2023/06/18 01:23:01;;;;;;;10.85;6.60;;;;;;;-142.75;100.00;75936.50;5025931;28;20489;-66
2023/06/18 01:25:32;;;;;;;10.68;6.35;;;;;;;-142.75;100.00;75948.31;5022657;28;20032;-63
2023/06/18 01:28:00;;;;;;;11.52;6.72;;;;;;;-142.75;100.00;75946.34;5025456;28;20029;-63
2023/06/18 01:30:26;;;;;;;10.93;6.50;;;;;;;-142.75;100.00;75944.38;5026107;28;20051;-63
2023/06/18 01:32:54;;;;;;;10.63;6.25;;;;;;;-142.75;100.00;75948.31;5025893;28;20018;-63
2023/06/18 01:35:21;;;;;;;10.80;6.90;;;;;;;-142.75;100.00;75950.28;5026212;28;21306;-63
2023/06/18 01:38:05;;;;;;;10.98;6.72;;;;;;;-142.75;100.00;75944.38;5026140;28;20029;-63
2023/06/18 01:40:38;;;;;;;12.27;7.00;;;;;;;-142.75;100.00;75942.41;5025260;28;20597;-63
2023/06/18 01:43:11;;;;;;;10.35;6.18;;;;;;;-142.75;100.00;75942.41;5025867;28;20384;-63
2023/06/18 01:45:50;;;;;;;9.75;6.03;;;;;;;-142.75;100.00;75936.50;5025736;28;20494;-63
2023/06/18 01:48:20;;;;;;;12.05;6.72;;;;;;;-142.75;100.00;75940.44;5024214;28;20136;-63
2023/06/18 01:50:48;;;;;;;10.50;6.70;;;;;;;-142.75;100.00;75938.47;5024311;28;20030;-63
2023/06/18 01:53:16;;;;;;;9.80;6.80;;;;;;;-142.75;100.00;75940.44;5025087;28;20063;-63
2023/06/18 01:55:44;;;;;;;10.25;7.25;;;;;;;-142.75;100.00;75944.38;5026144;28;20497;-63
2023/06/18 01:58:13;;;;;;;14.40;6.88;;;;;;;-142.75;100.00;75944.38;5026293;28;20021;-62
2023/06/18 02:00:38;;;;;;;17.05;6.85;;;;;;;-142.75;100.00;75944.38;5025552;28;20028;-63
2023/06/18 02:03:04;;;;;;;11.82;7.03;;;;;;;-142.75;100.00;75950.28;5025495;28;20025;-63
2023/06/18 02:05:29;;;;;;;15.43;7.18;;;;;;;-142.75;100.00;75950.28;5025797;28;20032;-63
2023/06/18 02:07:54;;;;;;;11.23;7.60;;;;;;;-142.75;100.00;75948.31;5025535;28;20119;-63
2023/06/18 02:10:20;;;;;;;9.55;6.93;;;;;;;-142.75;100.00;75944.38;5025799;28;20415;-63
2023/06/18 02:12:45;;;;;;;8.82;6.65;;;;;;;-142.75;100.00;75954.22;5025656;28;20032;-63
2023/06/18 02:15:11;;;;;;;11.30;6.75;;;;;;;-142.75;100.00;75956.19;5025557;28;20052;-62
2023/06/18 02:17:36;;;;;;;11.27;7.30;;;;;;;-142.75;100.00;75960.13;5025599;28;20017;-63
2023/06/18 02:20:02;;;;;;;11.40;6.90;;;;;;;-142.75;100.00;75967.97;5025231;28;20057;-63
2023/06/18 02:22:28;;;;;;;8.63;6.65;;;;;;;-142.75;100.00;75967.97;5025383;28;20087;-63
2023/06/18 02:24:53;;;;;;;15.15;6.88;;;;;;;-142.75;100.00;75973.88;5025353;28;20034;-63
2023/06/18 02:27:18;;;;;;;11.45;7.40;;;;;;;-142.75;100.00;75971.91;5025375;28;20510;-63
2023/06/18 02:29:45;;;;;;;10.60;6.85;;;;;;;-142.75;100.00;75969.94;5025899;28;20036;-63
2023/06/18 02:32:11;;;;;;;10.45;7.00;;;;;;;-142.75;100.00;75975.84;5025468;28;20515;-62
2023/06/18 02:34:37;;;;;;;12.68;7.47;;;;;;;-142.75;100.00;75977.81;5025416;28;20024;-63
2023/06/18 02:37:03;;;;;;;11.38;6.65;;;;;;;-142.75;100.00;75985.69;5025524;28;20060;-63
2023/06/18 02:39:28;;;;;;;12.75;7.35;;;;;;;-142.75;100.00;75989.63;5025317;28;20057;-63
2023/06/18 02:41:54;;;;;;;9.77;6.68;;;;;;;-142.75;100.00;75991.59;5025711;28;20025;-63
2023/06/18 02:44:19;;;;;;;9.90;7.40;;;;;;;-142.75;100.00;75995.53;5029450;28;20029;-63
2023/06/18 02:46:45;;;;;;;12.88;7.75;;;;;;;-142.75;100.00;75997.50;5029098;28;20446;-63
2023/06/18 02:49:10;;;;;;;13.23;7.72;;;;;;;-142.75;100.00;75999.47;5029059;28;20026;-62
2023/06/18 02:51:37;;;;;;;12.23;7.65;;;;;;;-142.75;100.00;76007.34;5029269;28;20029;-63
2023/06/18 02:54:02;;;;;;;11.80;7.50;;;;;;;-142.75;100.00;76007.34;5028482;28;20064;-63
2023/06/18 02:56:28;;;;;;;10.18;7.30;;;;;;;-142.75;100.00;76007.34;5029047;28;20112;-63
2023/06/18 02:58:56;;;;;;;9.32;6.63;;;;;;;-142.75;100.00;76011.28;5029369;28;20047;-63
2023/06/18 03:01:23;;;;;;;10.10;7.05;;;;;;;-142.75;100.00;76011.28;5028577;28;20025;-62
2023/06/18 03:03:49;;;;;;;14.73;8.13;;;;;;;-142.75;100.00;76011.28;5028238;28;20022;-63
2023/06/18 03:06:15;;;;;;;10.48;7.65;;;;;;;-142.75;100.00;76017.19;5028844;28;20052;-63
2023/06/18 03:08:40;;;;;;;11.48;7.70;;;;;;;-142.75;100.00;76029.00;5028379;28;20099;-62
2023/06/18 03:11:05;;;;;;;11.23;7.22;;;;;;;-142.75;100.00;76027.03;5028724;28;20029;-63
2023/06/18 03:13:30;;;;;;;10.88;7.47;;;;;;;-142.75;100.00;76034.91;5028440;28;20108;-63
2023/06/18 03:15:56;;;;;;;13.20;7.15;;;;;;;-142.75;100.00;76034.91;5028712;28;20025;-63
2023/06/18 03:18:21;;;;;;;12.80;7.32;;;;;;;-142.75;100.00;76030.97;5028356;28;20021;-63
2023/06/18 03:20:46;;;;;;;11.65;7.55;;;;;;;-142.75;100.00;76034.91;5028838;28;20033;-63
2023/06/18 03:23:12;;;;;;;13.48;8.18;;;;;;;-142.75;100.00;76042.78;5028105;28;20018;-63
2023/06/18 03:25:37;;;;;;;13.98;8.38;;;;;;;-142.75;100.00;76044.75;5028586;28;20071;-63
2023/06/18 03:28:03;;;;;;;13.10;8.05;;;;;;;-142.75;100.00;76058.53;5043816;28;20293;-63
2023/06/18 03:30:28;;;;;;;14.98;9.30;;;;;;;-142.75;100.00;76046.72;5028534;28;20030;-63
2023/06/18 03:32:56;;;;;;;12.25;8.70;;;;;;;-142.75;100.00;76060.50;5027950;28;20056;-63
2023/06/18 03:35:21;;;;;;;15.95;8.85;;;;;;;-142.75;100.00;76064.44;5028314;28;20056;-63
2023/06/18 03:37:47;;;;;;;14.05;8.70;;;;;;;-142.75;100.00;76050.66;5028324;28;20375;-62
2023/06/18 03:40:12;;;;;;;16.02;8.90;;;;;;;-142.75;100.00;76054.59;5027769;28;20018;-63
2023/06/18 03:42:37;;;;;;;15.02;8.95;;;;;;;-142.75;100.00;76052.63;5028057;28;20272;-62
2023/06/18 03:45:03;;;;;;;16.88;9.15;;;;;;;-142.75;100.00;76054.59;5028199;28;20057;-63
2023/06/18 03:47:29;;;;;;;13.20;8.82;;;;;;;-142.75;100.00;76060.50;5028008;28;20100;-63
2023/06/18 03:49:54;;;;;;;12.82;9.10;;;;;;;-142.75;100.00;76058.53;5026446;28;20609;-63
2023/06/18 03:52:20;;;;;;;13.85;9.35;;;;;;;-142.75;100.00;76058.53;5027933;28;20513;-62
2023/06/18 03:54:46;;;;;;;15.40;9.20;;;;;;;-142.75;100.00;76056.56;5026710;28;20021;-62
2023/06/18 03:57:12;;;;;;;17.90;9.35;;;;;;;-142.75;100.00;76070.34;5027847;28;20029;-63
2023/06/18 03:59:37;;;;;;;16.48;9.27;;;;;;;-142.75;100.00;76076.22;5028805;28;20078;-63
2023/06/18 04:02:03;;;;;;;15.32;8.60;;;;;;;-142.75;100.00;76070.34;5027591;28;20086;-63
2023/06/18 04:04:28;;;;;;;17.95;9.43;;;;;;;-142.75;100.00;76068.38;5027556;28;20033;-63
2023/06/18 04:06:54;;;;;;;15.60;9.05;;;;;;;-142.75;100.00;76062.47;5027830;28;20605;-63
2023/06/18 04:09:19;;;;;;;15.48;10.00;;;;;;;-142.75;100.00;76066.41;5027300;28;20036;-63
2023/06/18 04:11:45;;;;;;;13.80;9.40;;;;;;;-142.75;100.00;76072.31;5027335;28;20028;-62
2023/06/18 04:14:11;;;;;;;15.48;8.93;;;;;;;-142.75;100.00;76086.06;5027513;28;20195;-63
2023/06/18 04:16:36;;;;;;;16.88;9.70;;;;;;;-142.75;100.00;76082.13;5027580;28;20021;-63
2023/06/18 04:19:02;;;;;;;12.35;8.20;;;;;;;-142.75;100.00;76080.16;5027342;28;20025;-63
2023/06/18 04:21:27;;;;;;;15.00;9.32;;;;;;;-142.75;100.00;76082.13;5027117;28;20235;-63
2023/06/18 04:23:53;;;;;;;15.10;9.25;;;;;;;-142.75;100.00;76086.06;5027263;28;20037;-62
2023/06/18 04:26:19;;;;;;;21.92;9.48;;;;;;;-142.75;100.00;76086.06;5027689;28;20078;-62
2023/06/18 04:28:45;;;;;;;14.90;8.90;;;;;;;-142.75;100.00;76076.22;5027040;28;20029;-62
2023/06/18 04:31:10;;;;;;;15.27;10.60;;;;;;;-142.75;100.00;76074.25;5026457;28;20030;-62
2023/06/18 04:33:36;;;;;;;12.75;9.25;;;;;;;-142.75;100.00;76072.31;5026856;28;20730;-63
2023/06/18 04:36:01;;;;;;;14.13;9.10;;;;;;;-142.75;100.00;76070.34;5026962;28;20261;-63
2023/06/18 04:38:27;;;;;;;15.77;9.70;;;;;;;-142.75;100.00;76082.13;5026996;28;20029;-63
2023/06/18 04:40:52;;;;;;;15.65;10.38;;;;;;;-142.75;100.00;76072.31;5027024;28;20022;-63
2023/06/18 04:43:18;;;;;;;19.88;10.63;;;;;;;-142.75;100.00;76074.25;5026442;28;20516;-63
2023/06/18 04:45:46;;;;;;;19.45;10.93;;;;;;;-142.75;100.00;76068.38;5026840;28;20505;-63
2023/06/18 04:48:14;;;;;;;16.05;10.05;;;;;;;-142.75;100.00;76070.34;5026766;28;20037;-62
2023/06/18 04:50:39;;;;;;;18.00;10.68;;;;;;;-142.75;100.00;76066.41;5026706;28;20025;-62
2023/06/18 04:53:05;;;;;;;16.42;9.73;;;;;;;-142.75;100.00;76070.34;5026632;28;20035;-63
2023/06/18 04:55:30;;;;;;;20.63;10.45;;;;;;;-142.75;100.00;76060.50;5026898;28;20021;-63
2023/06/18 04:57:56;;;;;;;16.90;10.35;;;;;;;-142.75;100.00;76050.66;5026660;28;20041;-63
2023/06/18 05:00:21;;;;;;;17.90;9.80;;;;;;;-142.75;100.00;76044.75;5027144;28;20100;-62
2023/06/18 05:02:47;;;;;;;16.40;11.25;;;;;;;-142.75;100.00;76048.69;5025716;28;20116;-63
2023/06/18 05:05:12;;;;;;;17.38;11.25;;;;;;;-142.75;100.00;76036.88;5024490;28;20418;-62
2023/06/18 05:07:37;;;;;;;19.08;12.00;;;;;;;-142.75;100.00;76034.91;5025093;28;22119;-63
2023/06/18 05:10:04;;;;;;;19.35;10.65;;;;;;;-142.75;100.00;76034.91;5026287;28;20100;-62
2023/06/18 05:12:29;;;;;;;17.65;10.88;;;;;;;-142.75;100.00;76025.06;5026259;28;20026;-62
2023/06/18 05:14:55;;;;;;;22.95;11.27;;;;;;;-142.75;100.00;76011.28;5026523;28;20525;-63
2023/06/18 05:17:20;;;;;;;18.35;11.93;;;;;;;-142.75;100.00;76003.41;5026326;28;20520;-62
2023/06/18 05:19:45;;;;;;;17.98;11.73;;;;;;;-142.75;100.00;75999.47;5026343;28;20078;-63
2023/06/18 05:22:11;;;;;;;17.77;10.98;;;;;;;-142.75;100.00;75995.53;5025813;28;20047;-62
2023/06/18 05:24:36;;;;;;;17.70;10.90;;;;;;;-142.75;100.00;75995.53;5026403;28;20029;-62
2023/06/18 05:27:01;;;;;;;17.83;11.32;;;;;;;-142.75;100.00;75979.78;5026264;28;20021;-62
2023/06/18 05:29:27;;;;;;;18.85;10.20;;;;;;;-142.75;100.00;75971.91;5025063;28;20040;-63
2023/06/18 05:31:52;;;;;;;17.00;10.90;;;;;;;-142.75;100.00;75950.28;5025962;28;20021;-63
2023/06/18 05:34:17;;;;;;;17.08;9.57;;;;;;;-142.75;100.00;75948.31;5026020;28;20021;-62
2023/06/18 05:36:42;;;;;;;17.73;10.88;;;;;;;-142.75;100.00;75946.34;5026045;28;20298;-62
2023/06/18 05:39:09;;;;;;;14.60;9.43;;;;;;;-142.75;100.00;75938.47;5026090;28;20100;-63
2023/06/18 05:41:34;;;;;;;15.45;9.80;;;;;;;-142.75;100.00;75942.41;5024914;28;20025;-63
2023/06/18 05:43:59;;;;;;;17.15;9.77;;;;;;;-142.75;100.00;75934.53;5025725;28;20027;-62
2023/06/18 05:46:24;;;;;;;18.05;9.48;;;;;;;-142.75;100.00;75946.34;5025947;28;20104;-62
2023/06/18 05:48:51;;;;;;;16.92;10.05;;;;;;;-142.75;100.00;75948.31;5026046;28;20033;-62
2023/06/18 05:51:17;;;;;;;18.90;10.65;;;;;;;-142.75;100.00;75958.16;5025609;28;20525;-63
2023/06/18 05:53:42;;;;;;;16.85;10.75;;;;;;;-142.75;100.00;75954.22;5025916;28;20021;-62
2023/06/18 05:56:07;;;;;;;16.52;9.98;;;;;;;-142.75;100.00;75973.88;5026372;28;20088;-63
2023/06/18 05:58:33;;;;;;;18.27;9.75;;;;;;;-142.75;100.00;75966.00;5025932;28;20073;-62
2023/06/18 06:00:58;;;;;;;14.80;8.57;;;;;;;-142.75;100.00;75948.31;5025681;28;20097;-62
2023/06/18 06:03:23;;;;;;;16.48;8.43;;;;;;;-142.75;100.00;75958.16;5025707;28;20064;-63
2023/06/18 06:05:49;;;;;;;10.15;7.22;;;;;;;-142.75;100.00;75995.53;5025909;28;20033;-62
2023/06/18 06:08:14;;;;;;;14.25;7.25;;;;;;;-142.75;100.00;75967.97;5024604;28;20032;-62
2023/06/18 06:10:40;;;;;;;13.15;7.95;;;;;;;-142.75;100.00;75958.16;5025650;28;20546;-61
2023/06/18 06:13:06;;;;;;;11.52;7.70;;;;;;;-142.75;100.00;75948.31;5025693;28;20389;-63
2023/06/18 06:15:31;;;;;;;11.00;7.47;;;;;;;-142.75;100.00;75948.31;5025694;28;20044;-62
2023/06/18 06:17:56;;;;;;;11.23;7.50;;;;;;;-142.75;100.00;75940.44;5027852;28;20053;-63
2023/06/18 06:20:22;;;;;;;16.30;7.65;;;;;;;-142.75;100.00;75940.44;5029448;28;20099;-62
2023/06/18 06:22:49;;;;;;;12.57;7.15;;;;;;;-142.75;100.00;75940.44;5029231;28;20035;-62
2023/06/18 06:25:15;;;;;;;10.93;7.07;;;;;;;-142.75;100.00;75920.75;5029730;28;20061;-63
2023/06/18 06:27:42;;;;;;;10.88;6.55;;;;;;;-142.75;100.00;75916.81;5029339;28;20037;-61
2023/06/18 06:30:09;;;;;;;10.45;7.20;;;;;;;-142.75;100.00;75908.94;5029159;28;20079;-62
2023/06/18 06:32:35;;;;;;;9.05;6.75;;;;;;;-142.75;100.00;75893.19;5028622;28;20120;-63
2023/06/18 06:35:02;;;;;;;10.90;7.25;;;;;;;-142.75;100.00;75889.25;5027799;28;20541;-63
2023/06/18 06:37:27;;;;;;;10.32;7.18;;;;;;;-142.75;100.00;75899.09;5028554;28;20514;-62
2023/06/18 06:39:52;;;;;;;11.25;7.53;;;;;;;-142.75;100.00;75889.25;5028835;28;20035;-62
2023/06/18 06:42:18;;;;;;;10.35;6.90;;;;;;;-142.75;100.00;75891.22;5028631;28;20021;-62
2023/06/18 06:44:43;;;;;;;9.43;6.22;;;;;;;-142.75;100.00;75901.06;5028335;28;20037;-62
2023/06/18 06:47:08;;;;;;;9.73;6.38;;;;;;;-142.75;100.00;75908.94;5028643;28;20021;-64
2023/06/18 06:49:34;;;;;;;9.32;6.22;;;;;;;-142.75;100.00;75912.88;5028694;28;20029;-63
2023/06/18 06:51:59;;;;;;;9.40;6.05;;;;;;;-142.75;100.00;75914.84;5029019;28;20056;-63
2023/06/18 06:54:24;;;;;;;10.93;6.20;;;;;;;-142.75;100.00;75912.88;5028582;28;20017;-62
2023/06/18 06:56:50;;;;;;;8.95;6.05;;;;;;;-142.75;100.00;75905.00;5028398;28;20021;-62
2023/06/18 06:59:15;;;;;;;9.45;6.90;;;;;;;-142.75;100.00;75893.19;5028280;28;20029;-63
2023/06/18 07:01:42;;;;;;;8.00;6.20;;;;;;;-142.75;100.00;75897.13;5028333;28;20029;-63
2023/06/18 07:04:07;;;;;;;12.05;7.03;;;;;;;-142.75;100.00;75895.16;5027939;28;20052;-63
2023/06/18 07:06:33;;;;;;;11.15;6.57;;;;;;;-142.75;100.00;75891.22;5028178;28;20053;-63
2023/06/18 07:09:00;;;;;;;10.13;6.72;;;;;;;-142.75;100.00;75891.22;5027820;28;20045;-62
2023/06/18 07:11:25;;;;;;;11.40;7.57;;;;;;;-142.75;100.00;75889.25;5027599;28;20033;-63
2023/06/18 07:13:51;;;;;;;11.85;6.60;;;;;;;-142.75;100.00;75877.44;5027736;28;20087;-62
2023/06/18 07:16:16;;;;;;;10.65;6.53;;;;;;;-142.75;100.00;75869.56;5026424;28;20117;-62
2023/06/18 07:18:41;;;;;;;11.43;7.25;;;;;;;-142.75;100.00;75861.69;5027151;28;20021;-63
2023/06/18 07:21:07;;;;;;;10.02;7.40;;;;;;;-142.75;100.00;75863.66;5027409;28;20052;-63
2023/06/18 07:23:32;;;;;;;9.98;6.40;;;;;;;-142.75;100.00;75869.56;5026951;28;20123;-62
2023/06/18 07:25:57;;;;;;;10.35;6.93;;;;;;;-142.75;100.00;75869.56;5027113;28;20030;-63
2023/06/18 07:28:23;;;;;;;9.90;7.03;;;;;;;-142.75;100.00;75855.81;5027071;28;20017;-63
2023/06/18 07:30:48;;;;;;;10.70;7.13;;;;;;;-142.75;100.00;75859.72;5027359;28;20037;-63
2023/06/18 07:33:13;;;;;;;10.50;6.57;;;;;;;-142.75;100.00;75857.78;5026832;28;20021;-63
2023/06/18 07:35:39;;;;;;;8.60;5.88;;;;;;;-142.75;100.00;75849.91;5027287;28;20037;-63
2023/06/18 07:38:04;;;;;;;9.77;5.93;;;;;;;-142.75;100.00;75842.03;5027145;28;20499;-62
2023/06/18 07:40:33;;;;;;;12.02;6.63;;;;;;;-142.75;100.00;75838.09;5026626;28;20083;-62
2023/06/18 07:42:58;;;;;;;10.32;6.22;;;;;;;-142.75;100.00;75820.38;5026604;28;20021;-62
2023/06/18 07:45:24;;;;;;;12.63;6.47;;;;;;;-142.75;100.00;75798.72;5026472;28;20087;-62
2023/06/18 07:47:49;;;;;;;12.60;6.38;;;;;;;-142.75;100.00;75779.03;5026443;28;20036;-62
2023/06/18 07:50:14;;;;;;;8.65;5.80;;;;;;;-142.75;98.59;75769.19;5026360;28;20029;-62
2023/06/18 07:52:40;;;;;;;10.55;6.47;;;;;;;-142.75;99.50;75755.44;5023350;28;20631;-62
2023/06/18 07:55:06;;;;;;;8.02;5.78;;;;;;;-142.75;100.00;75735.75;5025332;28;20057;-62
2023/06/18 07:57:31;;;;;;;10.43;5.60;;;;;;;-142.75;100.00;75725.91;5025491;28;20112;-62
2023/06/18 07:59:57;;;;;;;14.23;6.20;;;;;;;-142.75;100.00;75714.09;5024415;28;20068;-62
2023/06/18 08:02:23;;;;;;;11.93;6.05;;;;;;;-142.75;100.00;75688.50;5024230;28;20069;-62
2023/06/18 08:04:48;;;;;;;8.65;6.30;;;;;;;-142.75;100.00;75682.59;5025166;28;20097;-62
2023/06/18 08:07:13;;;;;;;14.15;6.00;;;;;;;-142.75;100.00;75666.88;5024547;28;20495;-62
2023/06/18 08:09:39;;;;;;;9.77;6.13;;;;;;;-142.75;100.00;75659.00;5025247;28;20029;-63
2023/06/18 08:12:05;;;;;;;10.20;6.38;;;;;;;-142.75;100.00;75637.34;5025360;28;20032;-62
2023/06/18 08:14:31;;;;;;;11.95;6.70;;;;;;;-142.75;97.68;75641.28;5025655;28;20063;-63
2023/06/18 08:16:56;;;;;;;9.60;6.70;;;;;;;-142.75;95.26;75641.28;5025802;28;20052;-63
2023/06/18 08:19:21;;;;;;;11.07;7.05;;;;;;;-142.75;93.67;75633.41;5025548;28;20625;-63
2023/06/18 08:21:47;;;;;;;12.27;6.50;;;;;;;-142.75;95.11;75633.41;5023915;28;20048;-63
2023/06/18 08:24:13;;;;;;;8.23;6.00;;;;;;;-142.75;96.83;75625.53;5024298;28;20064;-62
2023/06/18 08:26:38;;;;;;;8.65;6.50;;;;;;;-142.75;99.15;75613.72;5025679;28;20061;-62
2023/06/18 08:29:04;;;;;;;10.85;6.60;;;;;;;-142.75;97.93;75603.88;5025760;28;20108;-62
2023/06/18 08:31:29;;;;;;;10.48;6.15;;;;;;;-142.75;94.40;75594.06;5023885;28;20037;-62
2023/06/18 08:33:55;;;;;;;9.38;6.90;;;;;;;-142.75;92.20;75590.13;5023865;28;20013;-62
2023/06/18 08:36:23;;;;;;;13.05;7.55;;;;;;;-142.75;91.40;75590.13;5025051;28;20643;-63
2023/06/18 08:38:49;;;;;;;11.27;6.93;;;;;;;-142.75;96.48;75588.16;5024030;28;20041;-63
2023/06/18 08:41:14;;;;;;;8.65;6.20;;;;;;;-142.75;100.00;75582.25;5024114;28;20021;-62
2023/06/18 08:43:39;;;;;;;10.55;6.80;;;;;;;-142.75;100.00;75588.16;5025385;28;20036;-63
2023/06/18 08:46:12;;;;;;;10.68;6.40;;;;;;;-142.75;99.02;75597.97;5025684;28;20502;-63
2023/06/18 08:49:00;;;;;;;10.48;7.03;;;;;;;-142.75;100.00;75599.94;5025320;28;20025;-63
2023/06/18 08:51:26;;;;;;;8.93;6.55;;;;;;;-142.75;98.38;75599.94;5024864;28;20091;-63
2023/06/18 08:54:03;;;;;;;8.95;6.35;;;;;;;-142.75;97.92;75582.25;5025485;28;20508;-62
2023/06/18 08:56:30;;;;;;;9.25;6.22;;;;;;;-142.75;98.93;75584.22;5025441;28;20037;-62
2023/06/18 08:58:57;;;;;;;9.05;6.75;;;;;;;-142.75;100.00;75582.25;5025771;28;20057;-63
2023/06/18 09:01:24;;;;;;;8.80;6.43;;;;;;;-142.75;99.98;75586.19;5025452;28;20036;-62
2023/06/18 09:03:51;;;;;;;9.10;6.88;;;;;;;-142.75;99.66;75582.25;5025232;28;20033;-62
2023/06/18 09:06:18;;;;;;;12.00;6.93;;;;;;;-142.75;100.00;75582.25;5023328;28;20029;-62
2023/06/18 09:08:43;;;;;;;10.55;6.45;;;;;;;-142.75;100.00;75576.34;5022301;28;20044;-62
2023/06/18 09:11:09;;;;;;;10.65;7.25;;;;;;;-142.75;100.00;75592.09;5024366;28;20029;-62
2023/06/18 09:13:40;;;;;;;11.05;7.13;;;;;;;-142.75;100.00;75576.34;5022258;28;20037;-63
2023/06/18 09:16:05;;;;;;;16.13;7.97;;;;;;;-142.75;100.00;75601.91;5025069;28;20423;-63
2023/06/18 09:18:30;;;;;;;9.32;7.07;;;;;;;-142.75;100.00;75601.91;5024133;28;20048;-62
2023/06/18 09:20:56;;;;;;;11.50;7.53;;;;;;;-142.75;100.00;75601.91;5023979;28;20044;-63
2023/06/18 09:23:21;;;;;;;10.93;7.05;;;;;;;-142.75;100.00;75607.81;5022575;28;20022;-62
2023/06/18 09:25:52;;;;;;;12.20;7.32;;;;;;;-142.75;100.00;75613.72;5024657;28;20693;-63
2023/06/18 09:28:19;;;;;;;11.25;7.32;;;;;;;-142.75;100.00;75609.78;5024886;28;20021;-62
2023/06/18 09:30:50;;;;;;;10.43;6.90;;;;;;;-142.75;100.00;75617.66;5025008;28;20060;-62
2023/06/18 09:33:15;;;;;;;9.70;6.88;;;;;;;-142.75;100.00;75629.47;5024413;28;20686;-63
2023/06/18 09:35:41;;;;;;;9.90;6.43;;;;;;;-142.75;100.00;75611.75;5024649;28;20025;-62
2023/06/18 09:38:09;;;;;;;8.27;5.97;;;;;;;-142.75;100.00;75609.78;5024841;28;20064;-62
2023/06/18 09:40:34;;;;;;;10.98;6.88;;;;;;;-142.75;100.00;75603.88;5024728;28;20033;-62
2023/06/18 09:43:00;;;;;;;8.90;6.13;;;;;;;-142.75;100.00;75594.06;5024515;28;20083;-62
2023/06/18 09:45:26;;;;;;;8.27;5.68;;;;;;;-142.75;100.00;75594.06;5024912;28;20087;-62
2023/06/18 09:47:52;;;;;;;9.18;5.43;;;;;;;-142.75;100.00;75597.97;5024896;28;20029;-62
2023/06/18 09:50:18;;;;;;;9.90;5.25;;;;;;;-142.75;100.00;75599.94;5024944;28;20029;-62
2023/06/18 09:52:48;;;;;;;8.20;5.68;;;;;;;-142.75;100.00;75586.19;5024094;28;20116;-63
2023/06/18 09:55:33;;;;;;;6.53;4.68;;;;;;;-142.75;100.00;75580.28;5024807;28;20116;-62
2023/06/18 09:57:59;;;;;;;8.25;4.63;;;;;;;-142.75;100.00;75596.00;5025428;28;20471;-62
2023/06/18 10:00:25;;;;;;;7.13;4.35;;;;;;;-142.75;100.00;75607.81;5025431;28;20029;-62
2023/06/18 10:02:51;;;;;;;7.95;4.60;;;;;;;-142.75;100.00;75596.00;5026265;28;20029;-62
2023/06/18 10:05:17;;;;;;;6.82;4.97;;;;;;;-142.75;100.00;75601.91;5025518;28;20449;-63
2023/06/18 10:07:43;;;;;;;5.65;4.60;;;;;;;-142.75;100.00;75607.81;5022794;28;20037;-63
2023/06/18 10:10:13;;;;;;;6.85;4.68;;;;;;;-142.75;100.00;75603.88;5025226;28;20033;-62
2023/06/18 10:12:41;;;;;;;6.90;4.88;;;;;;;-142.75;100.00;75586.19;5024473;28;20073;-64
2023/06/18 10:15:10;;;;;;;5.90;4.70;;;;;;;-142.75;100.00;75570.44;5024647;28;20017;-63
2023/06/18 10:17:43;;;;;;;8.77;5.38;;;;;;;-142.75;100.00;75570.44;5024526;28;20053;-63
2023/06/18 10:20:12;;;;;;;7.05;4.32;;;;;;;-142.75;100.00;75554.69;5025542;28;20026;-62
2023/06/18 10:22:45;;;;;;;8.13;5.07;;;;;;;-142.75;100.00;75566.50;5024960;28;20029;-63
2023/06/18 10:25:11;;;;;;;9.07;6.13;;;;;;;-142.75;100.00;75582.25;5024204;28;20098;-63
2023/06/18 10:27:36;;;;;;;9.88;5.10;;;;;;;-142.75;100.00;75578.31;5024983;28;20033;-63
2023/06/18 10:30:03;;;;;;;7.72;5.50;;;;;;;-142.75;100.00;75574.38;5024231;28;20057;-62
2023/06/18 10:32:31;;;;;;;6.90;5.35;;;;;;;-142.75;100.00;75566.50;5023802;28;20363;-63
2023/06/18 10:34:59;;;;;;;7.45;5.53;;;;;;;-142.75;100.00;75566.50;5025615;28;20047;-62
2023/06/18 10:37:26;;;;;;;5.70;4.43;;;;;;;-142.75;100.00;75556.66;5025311;28;20556;-63
2023/06/18 10:39:52;;;;;;;6.30;4.70;;;;;;;-142.75;100.00;75552.72;5025741;28;20108;-62
2023/06/18 10:42:20;;;;;;;6.22;4.63;;;;;;;-142.75;100.00;75552.72;5025329;28;20025;-62
2023/06/18 10:45:02;;;;;;;6.65;4.93;;;;;;;-142.75;100.00;75546.81;5024755;28;20017;-62
2023/06/18 10:47:31;;;;;;;7.55;4.60;;;;;;;-142.75;100.00;75535.00;5025867;28;20036;-62
2023/06/18 10:50:02;;;;;;;6.20;4.55;;;;;;;-142.75;100.00;75531.06;5025723;28;20044;-62
2023/06/18 10:52:41;;;;;;;6.90;4.78;;;;;;;-142.75;100.00;75535.00;5025580;28;20023;-63
2023/06/18 10:55:18;;;;;;;6.25;4.80;;;;;;;-142.75;100.00;75535.00;5025467;28;20568;-61
2023/06/18 10:57:47;;;;;;;7.97;5.15;;;;;;;-142.75;100.00;75542.88;5024970;28;20148;-62
2023/06/18 11:00:29;;;;;;;5.18;4.10;;;;;;;-142.75;100.00;75546.81;5025673;28;20021;-62
2023/06/18 11:03:05;;;;;;;7.65;5.78;;;;;;;-142.75;100.00;75552.72;5026136;28;20033;-62